createdAt,value
2017-11-06T00:01:53.360Z,100645.58
2017-11-06T00:04:21.277Z,100641.65
2017-11-06T00:06:49.206Z,100639.57
2017-11-06T00:09:17.510Z,100649.05
2017-11-06T00:11:45.424Z,100650.75
2017-11-06T00:14:13.352Z,100650.47
2017-11-06T00:16:41.253Z,100652.21
2017-11-06T00:19:09.236Z,100663.94
2017-11-06T00:21:37.156Z,100666.44
2017-11-06T00:24:05.070Z,100675.03
2017-11-06T00:26:32.994Z,100673.75
2017-11-06T00:29:00.886Z,100680.08
2017-11-06T00:31:28.874Z,100690.59
2017-11-06T00:33:56.793Z,100685.45
2017-11-06T00:36:24.713Z,100691.48
2017-11-06T00:38:52.681Z,100693.69
2017-11-06T00:41:20.598Z,100702.16
2017-11-06T00:43:48.586Z,100706.09
2017-11-06T00:46:16.544Z,100705.63
2017-11-06T00:48:44.440Z,100710.27
2017-11-06T00:51:12.357Z,100699.27
2017-11-06T00:53:41.536Z,100708.52
2017-11-06T00:56:09.852Z,100711.95
2017-11-06T00:58:37.745Z,100714.58
2017-11-06T01:01:05.653Z,100713.34
2017-11-06T01:03:34.017Z,100725.01
2017-11-06T01:06:02.072Z,100720.68
2017-11-06T01:08:30.606Z,100723.72
2017-11-06T01:10:58.508Z,100724.03
2017-11-06T01:13:26.427Z,100714.20
2017-11-06T01:15:54.775Z,100717.38
2017-11-06T01:18:22.668Z,100710.91
2017-11-06T01:20:50.998Z,100705.70
2017-11-06T01:23:18.938Z,100713.91
2017-11-06T01:25:46.860Z,100715.92
2017-11-06T01:28:14.770Z,100722.40
2017-11-06T01:30:42.678Z,100719.80
2017-11-06T01:33:10.609Z,100721.92
2017-11-06T01:35:39.168Z,100722.43
2017-11-06T01:38:07.469Z,100735.39
2017-11-06T01:40:35.374Z,100738.70
2017-11-06T01:43:03.281Z,100739.48
2017-11-06T01:45:31.617Z,100740.69
2017-11-06T01:47:59.525Z,100743.27
2017-11-06T01:50:27.827Z,100743.44
2017-11-06T01:52:55.800Z,100751.40
2017-11-06T01:55:23.700Z,100749.22
2017-11-06T01:57:51.604Z,100757.95
2017-11-06T02:00:19.962Z,100754.88
2017-11-06T02:02:47.899Z,100754.86
2017-11-06T02:05:15.849Z,100761.16
2017-11-06T02:07:43.776Z,100763.46
2017-11-06T02:10:11.790Z,100763.08
2017-11-06T02:12:39.693Z,100767.20
2017-11-06T02:15:07.630Z,100769.51
2017-11-06T02:17:35.552Z,100766.94
2017-11-06T02:20:03.564Z,100770.55
2017-11-06T02:22:31.645Z,100779.13
2017-11-06T02:24:59.546Z,100778.56
2017-11-06T02:27:27.466Z,100768.87
2017-11-06T02:29:55.480Z,100778.91
2017-11-06T02:32:23.382Z,100778.33
2017-11-06T02:34:51.729Z,100789.21
2017-11-06T02:37:19.631Z,100792.27
2017-11-06T02:39:47.945Z,100800.86
2017-11-06T02:42:15.858Z,100803.37
2017-11-06T02:44:43.804Z,100814.75
2017-11-06T02:47:11.735Z,100818.38
2017-11-06T02:49:39.664Z,100823.63
2017-11-06T02:52:07.606Z,100827.09
2017-11-06T02:54:35.512Z,100828.95
2017-11-06T02:57:03.814Z,100827.28
2017-11-06T02:59:31.725Z,100834.23
2017-11-06T03:02:00.517Z,100841.38
2017-11-06T03:04:28.433Z,100839.92
2017-11-06T03:06:56.353Z,100840.19
2017-11-06T03:09:24.252Z,100844.28
2017-11-06T03:11:52.574Z,100843.98
2017-11-06T03:14:20.482Z,100833.16
2017-11-06T03:16:48.583Z,100833.57
2017-11-06T03:19:16.496Z,100827.11
2017-11-06T03:21:44.433Z,100845.55
2017-11-06T03:24:12.338Z,100861.63
2017-11-06T03:26:40.309Z,100875.51
2017-11-06T03:29:08.205Z,100888.08
2017-11-06T03:31:36.504Z,100887.16
2017-11-06T03:34:04.478Z,100896.88
2017-11-06T03:36:32.498Z,100895.26
2017-11-06T03:39:00.404Z,100893.42
2017-11-06T03:41:28.339Z,100891.12
2017-11-06T03:43:56.253Z,100897.27
2017-11-06T03:46:24.167Z,100901.65
2017-11-06T03:48:52.145Z,100898.20
2017-11-06T03:51:20.061Z,100899.28
2017-11-06T03:53:47.975Z,100900.00
2017-11-06T03:56:15.955Z,100914.29
2017-11-06T03:58:44.257Z,100917.69
2017-11-06T04:01:12.169Z,100922.81
2017-11-06T04:03:40.105Z,100927.11
2017-11-06T04:06:08.132Z,100927.41
2017-11-06T04:08:36.035Z,100929.63
2017-11-06T04:11:03.969Z,100934.33
2017-11-06T04:13:31.935Z,100930.28
2017-11-06T04:15:59.904Z,100940.03
2017-11-06T04:18:27.864Z,100949.63
2017-11-06T04:20:55.824Z,100957.02
2017-11-06T04:23:25.413Z,100960.84
2017-11-06T04:25:53.357Z,100972.05
2017-11-06T04:28:21.281Z,100975.46
2017-11-06T04:30:49.250Z,100972.42
2017-11-06T04:33:17.209Z,100989.06
2017-11-06T04:35:45.155Z,100976.02
2017-11-06T04:38:13.146Z,100978.56
2017-11-06T04:40:41.085Z,100976.92
2017-11-06T04:43:08.998Z,100981.66
2017-11-06T04:45:36.905Z,100983.28
2017-11-06T04:48:04.831Z,100989.70
2017-11-06T04:50:32.794Z,100997.34
2017-11-06T04:53:00.709Z,100996.45
2017-11-06T04:55:28.637Z,100994.84
2017-11-06T04:57:56.541Z,100998.13
2017-11-06T05:00:24.446Z,101004.42
2017-11-06T05:02:52.379Z,101000.41
2017-11-06T05:05:20.301Z,101001.70
2017-11-06T05:07:48.205Z,100999.59
2017-11-06T05:10:16.561Z,101006.87
2017-11-06T05:12:44.472Z,101016.34
2017-11-06T05:15:12.365Z,101011.70
2017-11-06T05:17:40.277Z,101016.39
2017-11-06T05:20:08.586Z,101021.82
2017-11-06T05:22:36.497Z,101025.44
2017-11-06T05:25:04.415Z,101025.73
2017-11-06T05:27:32.335Z,101031.73
2017-11-06T05:30:00.246Z,101030.73
2017-11-06T05:32:28.164Z,101042.36
2017-11-06T05:34:56.058Z,101039.67
2017-11-06T05:37:24.361Z,101041.50
2017-11-06T05:39:52.273Z,101051.27
2017-11-06T05:42:20.177Z,101055.49
2017-11-06T05:44:48.470Z,101063.02
2017-11-06T05:47:16.369Z,101061.77
2017-11-06T05:49:44.373Z,101070.47
2017-11-06T05:52:12.319Z,101076.56
2017-11-06T05:54:40.294Z,101091.52
2017-11-06T05:57:08.205Z,101091.77
2017-11-06T05:59:36.104Z,101091.11
2017-11-06T06:02:04.016Z,101097.16
2017-11-06T06:04:31.912Z,101107.58
2017-11-06T06:06:59.830Z,101108.80
2017-11-06T06:09:27.749Z,101111.07
2017-11-06T06:11:55.668Z,101102.19
2017-11-06T06:14:23.587Z,101105.17
2017-11-06T06:16:51.505Z,101113.28
2017-11-06T06:19:19.423Z,101124.27
2017-11-06T06:21:47.340Z,101129.78
2017-11-06T06:24:15.312Z,101129.39
2017-11-06T06:26:43.220Z,101132.59
2017-11-06T06:29:11.173Z,101137.42
2017-11-06T06:31:39.480Z,101140.88
2017-11-06T06:34:07.387Z,101150.71
2017-11-06T06:36:35.312Z,101151.65
2017-11-06T06:39:03.220Z,101157.44
2017-11-06T06:41:31.162Z,101168.02
2017-11-06T06:43:59.173Z,101165.91
2017-11-06T06:46:27.083Z,101176.95
2017-11-06T06:48:54.984Z,101175.48
2017-11-06T06:51:22.979Z,101181.86
2017-11-06T06:53:50.924Z,101187.84
2017-11-06T06:56:18.913Z,101191.79
2017-11-06T06:58:46.820Z,101186.26
2017-11-06T07:01:14.729Z,101202.26
2017-11-06T07:03:42.647Z,101210.66
2017-11-06T07:06:10.953Z,101210.44
2017-11-06T07:08:38.865Z,101214.28
2017-11-06T07:11:06.823Z,101214.89
2017-11-06T07:13:34.742Z,101218.45
2017-11-06T07:16:02.658Z,101222.47
2017-11-06T07:18:30.624Z,101232.06
2017-11-06T07:20:58.533Z,101239.36
2017-11-06T07:23:26.981Z,101245.39
2017-11-06T07:25:54.957Z,101253.58
2017-11-06T07:28:22.955Z,101258.07
2017-11-06T07:30:50.882Z,101254.20
2017-11-06T07:33:18.797Z,101251.28
2017-11-06T07:35:46.712Z,101256.15
2017-11-06T07:38:14.727Z,101264.20
2017-11-06T07:40:42.638Z,101267.03
2017-11-06T07:43:10.637Z,101271.45
2017-11-06T07:45:38.552Z,101276.45
2017-11-06T07:48:06.468Z,101280.38
2017-11-06T07:50:34.437Z,101284.53
2017-11-06T07:53:02.349Z,101285.81
2017-11-06T07:55:30.268Z,101287.59
2017-11-06T07:57:58.233Z,101295.78
2017-11-06T08:00:26.204Z,101295.02
2017-11-06T08:02:54.114Z,101294.80
2017-11-06T08:05:22.038Z,101301.41
2017-11-06T08:07:49.942Z,101303.64
2017-11-06T08:10:18.393Z,101305.83
2017-11-06T08:12:46.305Z,101314.39
2017-11-06T08:15:14.228Z,101310.45
2017-11-06T08:17:42.132Z,101321.56
2017-11-06T08:20:10.061Z,101316.67
2017-11-06T08:22:37.981Z,101326.04
2017-11-06T08:25:05.912Z,101326.27
2017-11-06T08:27:33.840Z,101337.02
2017-11-06T08:30:01.750Z,101333.92
2017-11-06T08:32:29.667Z,101337.04
2017-11-06T08:34:57.568Z,101339.95
2017-11-06T08:37:25.513Z,101344.63
2017-11-06T08:39:53.421Z,101352.09
2017-11-06T08:42:21.364Z,101356.82
2017-11-06T08:44:49.437Z,101365.16
2017-11-06T08:47:17.360Z,101368.08
2017-11-06T08:49:45.292Z,101369.90
2017-11-06T08:52:13.244Z,101375.69
2017-11-06T08:54:41.153Z,101381.11
2017-11-06T08:57:10.053Z,101387.70
2017-11-06T08:59:37.956Z,101383.56
2017-11-06T09:02:05.957Z,101394.34
2017-11-06T09:04:33.860Z,101397.94
2017-11-06T09:07:01.781Z,101395.61
2017-11-06T09:09:29.744Z,101400.73
2017-11-06T09:11:57.655Z,101401.66
2017-11-06T09:14:25.582Z,101402.34
2017-11-06T09:16:53.489Z,101404.22
2017-11-06T09:19:21.833Z,101410.14
2017-11-06T09:21:49.802Z,101413.55
2017-11-06T09:24:17.708Z,101425.91
2017-11-06T09:26:45.620Z,101424.87
2017-11-06T09:29:13.553Z,101427.27
2017-11-06T09:31:41.463Z,101433.02
2017-11-06T09:34:09.379Z,101439.92
2017-11-06T09:36:37.336Z,101430.02
2017-11-06T09:39:05.685Z,101427.34
2017-11-06T09:41:33.596Z,101436.01
2017-11-06T09:44:01.522Z,101439.25
2017-11-06T09:46:29.436Z,101435.09
2017-11-06T09:48:57.351Z,101440.70
2017-11-06T09:51:25.277Z,101442.71
2017-11-06T09:53:53.205Z,101440.15
2017-11-06T09:56:21.119Z,101435.97
2017-11-06T09:58:49.129Z,101442.28
2017-11-06T10:01:17.050Z,101437.30
2017-11-06T10:03:44.953Z,101443.47
2017-11-06T10:06:12.874Z,101444.03
2017-11-06T10:08:40.796Z,101453.93
2017-11-06T10:11:08.727Z,101453.23
2017-11-06T10:13:36.736Z,101461.27
2017-11-06T10:16:04.656Z,101459.52
2017-11-06T10:18:32.592Z,101469.79
2017-11-06T10:21:00.509Z,101468.00
2017-11-06T10:23:28.523Z,101463.02
2017-11-06T10:25:56.476Z,101460.25
2017-11-06T10:28:24.447Z,101466.03
2017-11-06T10:30:52.414Z,101455.08
2017-11-06T10:35:47.544Z,101445.02
2017-11-06T10:38:15.447Z,101444.77
2017-11-06T10:40:43.358Z,101444.47
2017-11-06T10:43:11.266Z,101440.56
2017-11-06T10:45:39.577Z,101443.59
2017-11-06T10:48:07.525Z,101445.53
2017-11-06T10:50:35.832Z,101448.26
2017-11-06T10:53:03.844Z,101443.25
2017-11-06T10:55:31.752Z,101443.97
2017-11-06T10:57:59.779Z,101446.64
2017-11-06T11:00:27.696Z,101452.02
2017-11-06T11:02:55.726Z,101455.70
2017-11-06T11:05:23.648Z,101456.52
2017-11-06T11:07:51.556Z,101459.84
2017-11-06T11:10:19.470Z,101448.73
2017-11-06T11:12:47.380Z,101455.63
2017-11-06T11:15:15.304Z,101458.88
2017-11-06T11:17:43.231Z,101466.52
2017-11-06T11:20:11.156Z,101466.48
2017-11-06T11:22:39.063Z,101466.02
2017-11-06T11:25:07.041Z,101474.50
2017-11-06T11:27:34.964Z,101484.92
2017-11-06T11:30:03.383Z,101484.50
2017-11-06T11:32:31.300Z,101492.38
2017-11-06T11:34:59.300Z,101495.16
2017-11-06T11:37:27.271Z,101494.75
2017-11-06T11:39:55.342Z,101497.77
2017-11-06T11:42:23.307Z,101500.64
2017-11-06T11:44:51.270Z,101504.04
2017-11-06T11:47:19.184Z,101505.59
2017-11-06T11:49:47.528Z,101502.16
2017-11-06T11:52:15.511Z,101506.23
2017-11-06T11:54:43.412Z,101502.10
2017-11-06T11:57:11.332Z,101503.54
2017-11-06T11:59:39.236Z,101503.08
2017-11-06T12:02:07.548Z,101499.08
2017-11-06T12:04:35.648Z,101500.38
2017-11-06T12:07:03.622Z,101499.47
2017-11-06T12:09:31.544Z,101496.38
2017-11-06T12:11:59.461Z,101500.31
2017-11-06T12:14:27.359Z,101505.98
2017-11-06T12:16:55.665Z,101505.38
2017-11-06T12:19:23.768Z,101509.92
2017-11-06T12:21:51.684Z,101512.72
2017-11-06T12:24:19.611Z,101517.77
2017-11-06T12:26:47.521Z,101518.03
2017-11-06T12:29:15.440Z,101529.73
2017-11-06T12:31:43.412Z,101527.19
2017-11-06T12:34:11.341Z,101531.57
2017-11-06T12:36:39.343Z,101535.51
2017-11-06T12:39:07.317Z,101543.97
2017-11-06T12:41:35.299Z,101542.30
2017-11-06T12:44:03.318Z,101536.99
2017-11-06T12:46:31.324Z,101539.48
2017-11-06T12:48:59.227Z,101530.58
2017-11-06T12:51:27.573Z,101534.98
2017-11-06T12:53:55.480Z,101536.34
2017-11-06T12:56:23.805Z,101542.27
2017-11-06T12:58:51.791Z,101541.38
2017-11-06T13:01:19.706Z,101533.52
2017-11-06T13:03:47.617Z,101538.50
2017-11-06T13:06:15.590Z,101533.98
2017-11-06T13:08:43.499Z,101541.55
2017-11-06T13:11:11.820Z,101542.55
2017-11-06T13:13:39.804Z,101545.17
2017-11-06T13:16:07.732Z,101552.02
2017-11-06T13:18:35.642Z,101552.37
2017-11-06T13:21:03.556Z,101553.61
2017-11-06T13:23:31.455Z,101558.61
2017-11-06T13:25:59.444Z,101554.67
2017-11-06T13:28:27.418Z,101557.30
2017-11-06T13:30:55.428Z,101561.58
2017-11-06T13:33:23.339Z,101560.38
2017-11-06T13:35:51.320Z,101567.19
2017-11-06T13:38:19.229Z,101565.09
2017-11-06T13:40:47.537Z,101575.33
2017-11-06T13:43:15.544Z,101577.17
2017-11-06T13:45:43.464Z,101577.49
2017-11-06T13:48:11.475Z,101583.52
2017-11-06T13:50:39.488Z,101590.98
2017-11-06T13:53:07.791Z,101596.94
2017-11-06T13:55:35.716Z,101601.61
2017-11-06T13:58:04.014Z,101601.87
2017-11-06T14:00:31.922Z,101613.98
2017-11-06T14:02:59.826Z,101622.12
2017-11-06T14:05:28.133Z,101624.69
2017-11-06T14:07:56.039Z,101631.26
2017-11-06T14:10:23.960Z,101642.88
2017-11-06T14:12:51.864Z,101635.27
2017-11-06T14:15:19.814Z,101648.25
2017-11-06T14:17:47.724Z,101640.88
2017-11-06T14:20:15.629Z,101641.00
2017-11-06T14:22:44.079Z,101650.95
2017-11-06T14:25:12.038Z,101649.55
2017-11-06T14:27:39.935Z,101656.27
2017-11-06T14:30:08.253Z,101654.85
2017-11-06T14:32:36.244Z,101656.48
2017-11-06T14:35:04.155Z,101661.73
2017-11-06T14:37:32.161Z,101658.60
2017-11-06T14:40:00.154Z,101659.20
2017-11-06T14:42:28.132Z,101659.83
2017-11-06T14:44:56.056Z,101662.02
2017-11-06T14:47:23.977Z,101671.89
2017-11-06T14:49:51.904Z,101678.06
2017-11-06T14:52:19.828Z,101675.83
2017-11-06T14:54:48.130Z,101675.28
2017-11-06T14:57:16.048Z,101688.64
2017-11-06T14:59:43.947Z,101690.15
2017-11-06T15:02:11.851Z,101694.51
2017-11-06T15:04:39.857Z,101692.97
2017-11-06T15:07:07.825Z,101701.23
2017-11-06T15:09:35.726Z,101695.93
2017-11-06T15:12:04.024Z,101697.03
2017-11-06T15:14:31.920Z,101700.52
2017-11-06T15:16:59.835Z,101704.80
2017-11-06T15:19:27.864Z,101711.63
2017-11-06T15:21:55.794Z,101718.48
2017-11-06T15:24:23.699Z,101722.34
2017-11-06T15:26:51.605Z,101726.14
2017-11-06T15:29:20.076Z,101741.42
2017-11-06T15:31:48.435Z,101744.36
2017-11-06T15:34:16.334Z,101739.66
2017-11-06T15:36:44.693Z,101745.23
2017-11-06T15:39:13.373Z,101746.31
2017-11-06T15:41:41.267Z,101751.86
2017-11-06T15:44:09.568Z,101749.75
2017-11-06T15:46:37.572Z,101744.87
2017-11-06T15:49:05.477Z,101752.18
2017-11-06T15:51:33.790Z,101759.05
2017-11-06T15:54:01.796Z,101767.84
2017-11-06T15:56:29.704Z,101770.66
2017-11-06T15:58:57.602Z,101776.42
2017-11-06T16:01:25.591Z,101771.16
2017-11-06T16:03:54.402Z,101775.25
2017-11-06T16:06:22.632Z,101776.70
2017-11-06T16:08:50.837Z,101777.75
2017-11-06T16:11:20.446Z,101775.70
2017-11-06T16:13:49.800Z,101785.77
2017-11-06T16:16:18.128Z,101785.73
2017-11-06T16:18:46.762Z,101785.34
2017-11-06T16:21:15.058Z,101789.22
2017-11-06T16:23:44.263Z,101792.66
2017-11-06T16:26:12.411Z,101800.70
2017-11-06T16:28:40.584Z,101798.92
2017-11-06T16:31:08.756Z,101814.39
2017-11-06T16:33:37.034Z,101812.58
2017-11-06T16:36:05.001Z,101816.20
2017-11-06T16:38:32.939Z,101825.42
2017-11-06T16:41:01.374Z,101822.63
2017-11-06T16:43:29.385Z,101821.42
2017-11-06T16:45:58.006Z,101829.39
2017-11-06T16:48:26.027Z,101827.01
2017-11-06T16:50:54.067Z,101825.91
2017-11-06T16:53:22.117Z,101837.13
2017-11-06T16:55:50.035Z,101832.15
2017-11-06T16:58:18.033Z,101837.55
2017-11-06T17:00:46.375Z,101837.86
2017-11-06T17:03:14.336Z,101837.31
2017-11-06T17:05:42.361Z,101840.27
2017-11-06T17:08:10.341Z,101840.33
2017-11-06T17:10:38.618Z,101841.22
2017-11-06T17:13:06.760Z,101841.05
2017-11-06T17:15:34.716Z,101848.70
2017-11-06T17:18:02.803Z,101849.55
2017-11-06T17:20:31.313Z,101852.53
2017-11-06T17:22:59.309Z,101860.16
2017-11-06T17:25:27.421Z,101859.79
2017-11-06T17:27:55.542Z,101859.66
2017-11-06T17:30:23.804Z,101859.14
2017-11-06T17:32:52.001Z,101864.66
2017-11-06T17:35:20.033Z,101865.10
2017-11-06T17:37:48.364Z,101870.37
2017-11-06T17:40:16.276Z,101871.20
2017-11-06T17:42:44.216Z,101868.47
2017-11-06T17:45:12.124Z,101886.39
2017-11-06T17:47:40.035Z,101881.67
2017-11-06T17:50:07.971Z,101884.44
2017-11-06T17:52:35.869Z,101900.00
2017-11-06T17:55:03.768Z,101895.83
2017-11-06T17:57:32.064Z,101908.03
2017-11-06T17:59:59.963Z,101904.13
2017-11-06T18:02:27.967Z,101903.96
2017-11-06T18:04:56.340Z,101902.22
2017-11-06T18:07:24.264Z,101911.83
2017-11-06T18:09:52.165Z,101917.50
2017-11-06T18:12:20.076Z,101904.69
2017-11-06T18:14:48.373Z,101905.84
2017-11-06T18:17:16.288Z,101911.14
2017-11-06T18:19:44.189Z,101911.48
2017-11-06T18:22:12.488Z,101907.89
2017-11-06T18:24:40.510Z,101913.12
2017-11-06T18:27:08.428Z,101918.78
2017-11-06T18:29:36.340Z,101921.16
2017-11-06T18:32:04.241Z,101925.28
2017-11-06T18:34:32.154Z,101920.98
2017-11-06T18:37:00.338Z,101928.63
2017-11-06T18:39:28.505Z,101932.75
2017-11-06T18:41:56.681Z,101929.16
2017-11-06T18:44:24.785Z,101928.82
2017-11-06T18:46:53.122Z,101932.23
2017-11-06T18:49:21.375Z,101930.46
2017-11-06T18:51:49.650Z,101938.07
2017-11-06T18:54:17.953Z,101938.14
2017-11-06T18:56:46.464Z,101931.13
2017-11-06T18:59:14.581Z,101938.63
2017-11-06T19:01:42.607Z,101936.06
2017-11-06T19:04:10.511Z,101939.21
2017-11-06T19:06:38.482Z,101940.25
2017-11-06T19:09:06.517Z,101950.84
2017-11-06T19:11:34.428Z,101943.95
2017-11-06T19:14:02.322Z,101949.55
2017-11-06T19:16:30.262Z,101945.89
2017-11-06T19:18:58.183Z,101950.84
2017-11-06T19:21:26.147Z,101946.02
2017-11-06T19:23:54.074Z,101952.22
2017-11-06T19:26:21.991Z,101954.86
2017-11-06T19:28:49.903Z,101954.12
2017-11-06T19:31:17.846Z,101962.77
2017-11-06T19:33:46.174Z,101965.59
2017-11-06T19:36:14.108Z,101967.27
2017-11-06T19:38:42.038Z,101967.89
2017-11-06T19:41:09.944Z,101964.61
2017-11-06T19:43:37.885Z,101966.52
2017-11-06T19:46:05.804Z,101968.16
2017-11-06T19:48:33.715Z,101971.14
2017-11-06T19:51:01.652Z,101974.02
2017-11-06T19:53:29.643Z,101977.99
2017-11-06T19:55:57.544Z,101977.79
2017-11-06T19:58:25.453Z,101991.82
2017-11-06T20:00:53.363Z,102003.86
2017-11-06T20:03:21.701Z,101999.77
2017-11-06T20:05:49.631Z,102004.27
2017-11-06T20:08:17.540Z,102004.75
2017-11-06T20:10:45.453Z,102005.56
2017-11-06T20:13:13.744Z,102011.28
2017-11-06T20:15:41.665Z,102010.54
2017-11-06T20:18:09.576Z,102020.75
2017-11-06T20:20:37.505Z,102018.60
2017-11-06T20:23:05.505Z,102021.56
2017-11-06T20:25:33.952Z,102015.28
2017-11-06T20:28:01.860Z,102019.81
2017-11-06T20:30:30.163Z,102022.97
2017-11-06T20:32:58.125Z,102027.15
2017-11-06T20:35:26.158Z,102028.12
2017-11-06T20:37:54.511Z,102027.43
2017-11-06T20:40:22.424Z,102032.63
2017-11-06T20:42:50.363Z,102035.34
2017-11-06T20:45:18.288Z,102035.09
2017-11-06T20:47:46.214Z,102034.84
2017-11-06T20:50:14.507Z,102037.03
2017-11-06T20:52:42.429Z,102037.59
2017-11-06T20:55:10.365Z,102032.16
2017-11-06T20:57:38.264Z,102037.44
2017-11-06T21:00:06.181Z,102038.61
2017-11-06T21:02:34.095Z,102035.36
2017-11-06T21:05:01.993Z,102039.42
2017-11-06T21:07:30.316Z,102036.13
2017-11-06T21:09:58.300Z,102042.33
2017-11-06T21:12:26.243Z,102040.69
2017-11-06T21:14:54.199Z,102045.03
2017-11-06T21:17:22.164Z,102039.72
2017-11-06T21:19:50.080Z,102040.66
2017-11-06T21:22:18.057Z,102036.23
2017-11-06T21:24:45.971Z,102041.02
2017-11-06T21:27:13.955Z,102042.63
2017-11-06T21:29:47.431Z,102041.42
2017-11-06T21:32:15.834Z,102051.96
2017-11-06T21:34:43.961Z,102050.94
2017-11-06T21:37:12.621Z,102059.78
2017-11-06T21:39:40.780Z,102055.23
2017-11-06T21:42:09.025Z,102064.29
2017-11-06T21:44:37.354Z,102057.49
2017-11-06T21:47:05.899Z,102063.92
2017-11-06T21:49:34.520Z,102058.93
2017-11-06T21:52:02.970Z,102058.20
2017-11-06T21:54:31.162Z,102058.38
2017-11-06T21:56:59.358Z,102063.39
2017-11-06T21:59:27.484Z,102065.92
2017-11-06T22:01:55.456Z,102063.16
2017-11-06T22:04:23.438Z,102067.98
2017-11-06T22:06:51.512Z,102067.93
2017-11-06T22:09:19.768Z,102057.51
2017-11-06T22:11:47.952Z,102070.59
2017-11-06T22:14:16.135Z,102070.29
2017-11-06T22:16:44.292Z,102067.45
2017-11-06T22:19:12.409Z,102065.20
2017-11-06T22:21:40.716Z,102072.53
2017-11-06T22:24:08.960Z,102069.64
2017-11-06T22:26:37.253Z,102076.39
2017-11-06T22:29:06.700Z,102078.44
2017-11-06T22:31:34.823Z,102065.56
2017-11-06T22:34:03.079Z,102069.05
2017-11-06T22:36:32.055Z,102074.72
2017-11-06T22:39:00.338Z,102081.17
2017-11-06T22:41:28.697Z,102071.11
2017-11-06T22:43:57.724Z,102066.56
2017-11-06T22:46:26.033Z,102067.09
2017-11-06T22:48:54.181Z,102077.20
2017-11-06T22:51:22.357Z,102074.60
2017-11-06T22:53:50.637Z,102076.95
2017-11-06T22:56:19.381Z,102075.54
2017-11-06T22:58:47.900Z,102071.34
2017-11-06T23:01:19.251Z,102072.64
2017-11-06T23:03:47.829Z,102077.63
2017-11-06T23:06:16.450Z,102075.92
2017-11-06T23:08:44.647Z,102076.84
2017-11-06T23:11:13.028Z,102071.95
2017-11-06T23:13:41.222Z,102064.60
2017-11-06T23:16:09.559Z,102074.69
2017-11-06T23:18:37.860Z,102073.97
2017-11-06T23:21:06.035Z,102075.58
2017-11-06T23:23:34.620Z,102074.34
2017-11-06T23:26:02.799Z,102075.40
2017-11-06T23:28:30.762Z,102071.02
2017-11-06T23:30:58.773Z,102072.32
2017-11-06T23:33:26.758Z,102071.16
2017-11-06T23:35:54.678Z,102075.80
2017-11-06T23:38:22.590Z,102067.28
2017-11-06T23:40:50.552Z,102071.91
2017-11-06T23:43:18.493Z,102074.77
2017-11-06T23:45:46.441Z,102073.94
2017-11-06T23:48:14.343Z,102080.06
2017-11-06T23:50:42.255Z,102070.09
2017-11-06T23:53:10.232Z,102075.05
2017-11-06T23:55:38.169Z,102077.58
2017-11-06T23:58:06.520Z,102085.64
